createdAt,value
2022-12-28T00:00:29.400Z,99777.09
2022-12-28T00:03:47.371Z,99776.20
2022-12-28T00:07:03.638Z,99769.84
2022-12-28T00:10:20.283Z,99774.59
2022-12-28T00:13:40.331Z,99779.02
2022-12-28T00:16:56.398Z,99773.77
2022-12-28T00:20:14.194Z,99768.41
2022-12-28T00:23:30.501Z,99772.91
2022-12-28T00:26:46.837Z,99766.47
2022-12-28T00:30:03.761Z,99762.20
2022-12-28T00:33:20.100Z,99766.13
2022-12-28T00:37:11.143Z,99776.55
2022-12-28T00:39:54.586Z,99762.82
2022-12-28T00:43:10.924Z,99767.44
2022-12-28T00:46:27.066Z,99771.86
2022-12-28T00:49:43.511Z,99772.69
2022-12-28T00:52:59.802Z,99774.48
2022-12-28T00:56:20.424Z,99771.30
2022-12-28T00:59:36.535Z,99781.44
2022-12-28T01:02:52.783Z,99774.02
2022-12-28T01:06:12.601Z,99772.45
2022-12-28T01:09:28.771Z,99779.61
2022-12-28T01:12:45.052Z,99775.51
2022-12-28T01:16:01.675Z,99779.72
2022-12-28T01:19:21.078Z,99774.06
2022-12-28T01:22:34.931Z,99780.36
2022-12-28T01:25:50.865Z,99786.34
2022-12-28T01:29:08.924Z,99779.72
2022-12-28T01:32:26.425Z,99769.00
2022-12-28T01:35:44.153Z,99776.13
2022-12-28T01:39:05.555Z,99777.93
2022-12-28T01:42:26.020Z,99770.38
2022-12-28T01:45:42.207Z,99761.19
2022-12-28T01:49:03.517Z,99754.58
2022-12-28T01:52:25.536Z,99763.07
2022-12-28T01:55:46.084Z,99755.53
2022-12-28T01:59:04.872Z,99758.77
2022-12-28T02:02:22.641Z,99754.58
2022-12-28T02:05:44.625Z,99755.44
2022-12-28T02:09:08.450Z,99744.10
2022-12-28T02:12:25.944Z,99740.66
2022-12-28T02:15:42.269Z,99734.91
2022-12-28T02:18:59.781Z,99724.00
2022-12-28T02:22:39.258Z,99726.00
2022-12-28T02:26:29.928Z,99723.73
2022-12-28T02:30:07.028Z,99723.53
2022-12-28T02:33:28.264Z,99721.00
2022-12-28T02:36:50.211Z,99736.63
2022-12-28T02:40:10.814Z,99732.53
2022-12-28T02:43:27.373Z,99723.11
2022-12-28T02:47:00.026Z,99721.55
2022-12-28T02:50:20.179Z,99720.61
2022-12-28T02:53:50.811Z,99720.84
2022-12-28T02:57:14.049Z,99718.30
2022-12-28T03:00:34.579Z,99713.06
2022-12-28T03:03:57.572Z,99702.08
2022-12-28T03:07:34.053Z,99690.42
2022-12-28T03:10:55.766Z,99683.11
2022-12-28T03:14:18.382Z,99671.70
2022-12-28T03:17:51.536Z,99675.26
2022-12-28T03:21:26.328Z,99670.02
2022-12-28T03:24:58.886Z,99668.26
2022-12-28T03:28:34.050Z,99660.05
2022-12-28T03:31:52.001Z,99661.97
2022-12-28T03:35:10.812Z,99670.14
2022-12-28T03:38:35.059Z,99656.10
2022-12-28T03:42:06.257Z,99659.89
2022-12-28T03:45:46.131Z,99659.77
2022-12-28T03:48:47.181Z,99659.98
2022-12-28T03:52:05.748Z,99663.34
2022-12-28T03:55:24.643Z,99668.89
2022-12-28T03:58:39.088Z,99670.68
2022-12-28T04:01:58.792Z,99670.80
2022-12-28T04:05:17.950Z,99669.63
2022-12-28T04:08:35.541Z,99660.72
2022-12-28T04:11:53.360Z,99659.04
2022-12-28T04:15:12.568Z,99659.27
2022-12-28T04:18:28.917Z,99660.91
2022-12-28T04:21:45.257Z,99658.41
2022-12-28T04:25:01.595Z,99651.80
2022-12-28T04:28:19.783Z,99649.84
2022-12-28T04:31:54.014Z,99640.70
2022-12-28T04:35:11.216Z,99640.94
2022-12-28T04:38:29.571Z,99646.48
2022-12-28T04:41:45.787Z,99644.38
2022-12-28T04:45:01.951Z,99631.80
2022-12-28T04:48:18.090Z,99634.09
2022-12-28T04:51:36.245Z,99629.06
2022-12-28T04:54:52.358Z,99632.66
2022-12-28T04:58:09.078Z,99636.41
2022-12-28T05:01:27.424Z,99613.58
2022-12-28T05:04:43.688Z,99606.34
2022-12-28T05:07:59.854Z,99603.31
2022-12-28T05:11:20.191Z,99613.34
2022-12-28T05:14:37.000Z,99618.50
2022-12-28T05:17:51.433Z,99616.70
2022-12-28T05:21:12.696Z,99607.28
2022-12-28T05:24:28.757Z,99613.89
2022-12-28T05:27:44.957Z,99605.17
2022-12-28T05:31:06.471Z,99610.64
2022-12-28T05:34:22.584Z,99612.53
2022-12-28T05:37:38.831Z,99614.33
2022-12-28T05:40:54.878Z,99604.72
2022-12-28T05:44:12.892Z,99600.34
2022-12-28T05:47:28.742Z,99600.62
2022-12-28T05:50:45.288Z,99603.08
2022-12-28T05:54:01.773Z,99606.20
2022-12-28T05:57:21.008Z,99597.84
2022-12-28T06:00:36.980Z,99602.36
2022-12-28T06:03:57.179Z,99593.89
2022-12-28T06:07:13.256Z,99579.95
2022-12-28T06:10:29.397Z,99578.81
2022-12-28T06:13:46.202Z,99581.73
2022-12-28T06:17:02.161Z,99581.96
2022-12-28T06:20:20.217Z,99581.96
2022-12-28T06:23:36.219Z,99578.09
2022-12-28T06:26:53.216Z,99574.85
2022-12-28T06:30:09.581Z,99571.29
2022-12-28T06:33:25.497Z,99564.49
2022-12-28T06:36:46.534Z,99566.06
2022-12-28T06:40:02.582Z,99569.72
2022-12-28T06:43:18.877Z,99566.57
2022-12-28T06:46:38.995Z,99560.00
2022-12-28T06:49:55.290Z,99564.38
2022-12-28T06:53:11.558Z,99559.35
2022-12-28T06:56:30.256Z,99553.38
2022-12-28T06:59:46.427Z,99562.71
2022-12-28T07:03:11.635Z,99557.13
2022-12-28T07:06:31.881Z,99551.82
2022-12-28T07:09:48.242Z,99545.02
2022-12-28T07:13:04.604Z,99532.45
2022-12-28T07:16:24.054Z,99532.53
2022-12-28T07:19:38.213Z,99533.66
2022-12-28T07:22:54.648Z,99524.25
2022-12-28T07:26:18.679Z,99521.58
2022-12-28T07:29:34.812Z,99515.64
2022-12-28T07:32:50.953Z,99506.49
2022-12-28T07:36:07.941Z,99512.64
2022-12-28T07:39:26.078Z,99507.41
2022-12-28T07:42:43.443Z,99507.16
2022-12-28T07:46:09.701Z,99507.21
2022-12-28T07:49:26.065Z,99508.94
2022-12-28T07:52:44.734Z,99504.80
2022-12-28T07:56:06.773Z,99508.52
2022-12-28T07:59:29.000Z,99502.86
2022-12-28T08:02:41.317Z,99503.14
2022-12-28T08:06:00.081Z,99507.66
2022-12-28T08:09:18.394Z,99510.33
2022-12-28T08:12:34.450Z,99503.17
2022-12-28T08:15:50.857Z,99495.30
2022-12-28T08:19:07.526Z,99506.39
2022-12-28T08:22:24.769Z,99497.58
2022-12-28T08:25:42.896Z,99503.67
2022-12-28T08:29:03.180Z,99505.57
2022-12-28T08:32:20.578Z,99502.70
2022-12-28T08:35:36.867Z,99499.59
2022-12-28T08:38:56.030Z,99502.00
2022-12-28T08:42:12.400Z,99494.59
2022-12-28T08:45:31.066Z,99500.19
2022-12-28T08:48:49.610Z,99504.60
2022-12-28T08:52:08.901Z,99512.13
2022-12-28T08:55:25.890Z,99515.34
2022-12-28T08:58:42.041Z,99510.56
2022-12-28T09:01:58.435Z,99509.34
2022-12-28T09:05:18.138Z,99504.46
2022-12-28T09:08:36.888Z,99504.07
2022-12-28T09:11:54.174Z,99502.76
2022-12-28T09:15:10.854Z,99496.30
2022-12-28T09:18:28.843Z,99488.88
2022-12-28T09:21:49.077Z,99493.13
2022-12-28T09:25:05.840Z,99486.05
2022-12-28T09:28:22.749Z,99484.06
2022-12-28T09:31:42.577Z,99489.53
2022-12-28T09:35:01.396Z,99490.91
2022-12-28T09:38:17.598Z,99486.53
2022-12-28T09:41:38.279Z,99480.23
2022-12-28T09:45:06.930Z,99487.85
2022-12-28T09:48:28.676Z,99491.64
2022-12-28T09:51:50.282Z,99489.88
2022-12-28T09:55:14.679Z,99480.89
2022-12-28T09:58:55.701Z,99467.44
2022-12-28T10:02:23.697Z,99465.25
2022-12-28T10:05:40.880Z,99462.23
2022-12-28T10:09:01.931Z,99456.00
2022-12-28T10:12:29.062Z,99451.70
2022-12-28T10:15:45.464Z,99444.67
2022-12-28T10:19:02.364Z,99447.44
2022-12-28T10:22:22.524Z,99446.88
2022-12-28T10:25:40.494Z,99446.16
2022-12-28T10:29:01.297Z,99440.79
2022-12-28T10:32:22.499Z,99442.32
2022-12-28T10:35:42.134Z,99438.16
2022-12-28T10:39:02.524Z,99442.70
2022-12-28T10:42:30.179Z,99429.95
2022-12-28T10:45:51.369Z,99434.11
2022-12-28T10:49:15.399Z,99425.96
2022-12-28T10:52:30.845Z,99419.99
2022-12-28T10:55:50.058Z,99416.26
2022-12-28T10:59:30.946Z,99406.02
2022-12-28T11:02:48.388Z,99405.16
2022-12-28T11:06:35.300Z,99399.09
2022-12-28T11:09:52.060Z,99392.15
2022-12-28T11:13:09.284Z,99373.34
2022-12-28T11:16:25.756Z,99363.49
2022-12-28T11:19:42.900Z,99361.71
2022-12-28T11:23:00.079Z,99351.86
2022-12-28T11:26:20.800Z,99353.53
2022-12-28T11:29:37.260Z,99350.90
2022-12-28T11:33:01.971Z,99345.53
2022-12-28T11:36:24.841Z,99337.91
2022-12-28T11:39:50.529Z,99330.72
2022-12-28T11:43:06.741Z,99327.66
2022-12-28T11:46:51.372Z,99319.91
2022-12-28T11:50:45.924Z,99303.55
2022-12-28T11:54:05.653Z,99303.70
2022-12-28T11:57:26.002Z,99311.59
2022-12-28T12:01:01.589Z,99304.41
2022-12-28T12:04:46.955Z,99301.89
2022-12-28T12:08:16.701Z,99292.06
2022-12-28T12:11:49.054Z,99294.55
2022-12-28T12:15:10.052Z,99283.77
2022-12-28T12:18:31.376Z,99280.98
2022-12-28T12:21:51.342Z,99274.76
2022-12-28T12:25:13.409Z,99278.20
2022-12-28T12:28:46.223Z,99268.23
2022-12-28T12:32:06.828Z,99256.04
2022-12-28T12:35:25.614Z,99249.80
2022-12-28T12:38:58.221Z,99252.46
2022-12-28T12:42:21.679Z,99235.13
2022-12-28T12:45:43.655Z,99240.65
2022-12-28T12:49:18.115Z,99233.00
2022-12-28T12:52:45.086Z,99223.85
2022-12-28T12:56:09.753Z,99221.47
2022-12-28T12:59:45.392Z,99217.44
2022-12-28T13:03:39.827Z,99211.28
2022-12-28T13:06:57.190Z,99195.17
2022-12-28T13:10:19.402Z,99196.83
2022-12-28T13:13:41.227Z,99197.68
2022-12-28T13:17:01.875Z,99192.26
2022-12-28T13:20:28.247Z,99199.05
2022-12-28T13:23:52.649Z,99200.16
2022-12-28T13:27:19.942Z,99199.20
2022-12-28T13:30:36.814Z,99193.08
2022-12-28T13:34:04.056Z,99189.31
2022-12-28T13:37:26.402Z,99189.31
2022-12-28T13:40:43.548Z,99183.92
2022-12-28T13:44:31.279Z,99172.41
2022-12-28T13:47:52.537Z,99167.14
2022-12-28T13:51:09.117Z,99153.95
2022-12-28T13:54:25.806Z,99160.86
2022-12-28T13:57:48.287Z,99156.44
2022-12-28T14:01:09.261Z,99145.05
2022-12-28T14:07:49.206Z,99133.84
2022-12-28T14:11:07.409Z,99133.84
2022-12-28T14:14:24.961Z,99115.67
2022-12-28T14:17:41.465Z,99123.05
2022-12-28T14:21:01.314Z,99121.69
2022-12-28T14:24:20.635Z,99130.56
2022-12-28T14:27:36.531Z,99121.45
2022-12-28T14:30:57.564Z,99132.27
2022-12-28T14:34:18.359Z,99136.34
2022-12-28T14:37:39.437Z,99137.00
2022-12-28T14:41:02.735Z,99142.85
2022-12-28T14:44:26.326Z,99134.98
2022-12-28T14:47:50.725Z,99130.75
2022-12-28T14:51:10.524Z,99134.63
2022-12-28T14:54:33.468Z,99135.73
2022-12-28T14:57:52.467Z,99133.16
2022-12-28T15:01:13.726Z,99132.06
2022-12-28T15:04:44.733Z,99137.34
2022-12-28T15:08:02.157Z,99141.50
2022-12-28T15:11:22.465Z,99132.39
2022-12-28T15:14:38.581Z,99138.62
2022-12-28T15:17:56.096Z,99123.66
2022-12-28T15:21:15.134Z,99135.29
2022-12-28T15:24:34.246Z,99129.63
2022-12-28T15:27:52.574Z,99130.73
2022-12-28T15:31:11.946Z,99121.05
2022-12-28T15:34:28.617Z,99120.77
2022-12-28T15:37:44.989Z,99120.20
2022-12-28T15:41:04.465Z,99113.55
2022-12-28T15:44:21.508Z,99106.38
2022-12-28T15:47:37.817Z,99106.38
2022-12-28T15:50:54.260Z,99109.00
2022-12-28T15:54:10.855Z,99111.91
2022-12-28T15:57:26.945Z,99102.91
2022-12-28T16:00:47.551Z,99106.65
2022-12-28T16:04:04.459Z,99100.69
2022-12-28T16:07:21.532Z,99096.98
2022-12-28T16:10:37.741Z,99096.13
2022-12-28T16:13:57.511Z,99102.09
2022-12-28T16:17:13.616Z,99095.43
2022-12-28T16:20:30.127Z,99096.69
2022-12-28T16:23:50.718Z,99096.56
2022-12-28T16:27:07.008Z,99092.66
2022-12-28T16:30:24.269Z,99087.53
2022-12-28T16:33:40.206Z,99085.69
2022-12-28T16:36:58.434Z,99073.45
2022-12-28T16:40:19.810Z,99074.83
2022-12-28T16:43:36.525Z,99061.63
2022-12-28T16:46:52.671Z,99056.15
2022-12-28T16:50:08.822Z,99058.09
2022-12-28T16:53:25.102Z,99050.63
2022-12-28T16:56:41.365Z,99054.92
2022-12-28T16:59:57.454Z,99043.66
2022-12-28T17:03:13.583Z,99046.11
2022-12-28T17:06:30.267Z,99044.24
2022-12-28T17:09:50.119Z,99043.63
2022-12-28T17:13:05.720Z,99036.37
2022-12-28T17:16:22.008Z,99041.16
2022-12-28T17:19:38.398Z,99045.88
2022-12-28T17:22:54.594Z,99046.89
2022-12-28T17:26:11.360Z,99053.70
2022-12-28T17:29:27.466Z,99050.38
2022-12-28T17:32:44.563Z,99054.80
2022-12-28T17:36:04.156Z,99047.75
2022-12-28T17:39:27.903Z,99039.06
2022-12-28T17:42:44.256Z,99032.15
2022-12-28T17:46:00.636Z,99029.80
2022-12-28T17:49:20.310Z,99030.38
2022-12-28T17:52:37.056Z,99023.31
2022-12-28T17:55:53.396Z,99022.92
2022-12-28T17:59:10.193Z,99017.55
2022-12-28T18:02:29.812Z,99027.51
2022-12-28T18:05:46.266Z,99023.78
2022-12-28T18:09:02.515Z,99026.94
2022-12-28T18:12:29.954Z,99025.55
2022-12-28T18:15:51.531Z,99035.20
2022-12-28T18:19:07.718Z,99026.55
2022-12-28T18:22:24.073Z,99024.98
2022-12-28T18:25:42.447Z,99018.73
2022-12-28T18:28:58.728Z,99015.17
2022-12-28T18:32:15.336Z,99021.98
2022-12-28T18:35:31.492Z,99023.11
2022-12-28T18:38:55.030Z,99017.08
2022-12-28T18:42:12.591Z,99018.73
2022-12-28T18:45:28.819Z,99020.26
2022-12-28T18:48:47.620Z,99019.30
2022-12-28T18:52:04.797Z,99013.80
2022-12-28T18:55:22.254Z,99014.35
2022-12-28T18:58:43.657Z,99016.69
2022-12-28T19:02:10.733Z,99020.14
2022-12-28T19:05:18.674Z,99022.04
2022-12-28T19:08:45.888Z,99017.64
2022-12-28T19:12:03.586Z,99012.92
2022-12-28T19:15:21.006Z,99002.25
2022-12-28T19:18:37.738Z,99018.53
2022-12-28T19:21:58.680Z,99010.23
2022-12-28T19:25:14.215Z,99012.34
2022-12-28T19:28:30.690Z,99022.70
2022-12-28T19:31:47.113Z,99022.92
2022-12-28T19:35:03.415Z,99017.58
2022-12-28T19:38:22.779Z,99020.34
2022-12-28T19:41:39.022Z,99018.17
2022-12-28T19:44:55.622Z,99007.25
2022-12-28T19:48:12.616Z,99015.69
2022-12-28T19:51:31.385Z,99013.06
2022-12-28T19:54:47.505Z,99013.77
2022-12-28T19:58:03.671Z,99011.94
2022-12-28T20:01:23.520Z,99007.47
2022-12-28T20:04:42.569Z,98993.64
2022-12-28T20:07:58.913Z,98982.59
2022-12-28T20:11:15.566Z,98976.28
2022-12-28T20:14:33.706Z,98973.16
2022-12-28T20:17:51.225Z,98974.39
2022-12-28T20:21:24.630Z,98971.25
2022-12-28T20:24:59.847Z,98968.16
2022-12-28T20:28:58.043Z,98962.98
2022-12-28T20:33:27.523Z,98958.86
2022-12-28T20:43:17.346Z,98951.30
2022-12-28T20:47:29.135Z,98955.09
2022-12-28T20:51:47.008Z,98948.39
2022-12-28T20:55:13.640Z,98954.05
2022-12-28T20:58:30.379Z,98956.66
2022-12-28T21:01:48.403Z,98946.13
2022-12-28T21:05:19.039Z,98946.00
2022-12-28T21:08:36.150Z,98941.39
2022-12-28T21:11:52.950Z,98937.70
2022-12-28T21:15:09.417Z,98940.41
2022-12-28T21:18:25.875Z,98940.09
2022-12-28T21:21:42.087Z,98939.75
2022-12-28T21:24:58.297Z,98940.64
2022-12-28T21:28:15.458Z,98937.30
2022-12-28T21:31:47.336Z,98935.52
2022-12-28T21:35:03.411Z,98924.01
2022-12-28T21:38:19.475Z,98932.09
2022-12-28T21:41:54.229Z,98914.28
2022-12-28T21:45:11.935Z,98920.33
2022-12-28T21:48:28.374Z,98910.47
2022-12-28T21:51:44.794Z,98914.03
2022-12-28T21:55:03.647Z,98897.05
2022-12-28T21:58:19.929Z,98905.59
2022-12-28T22:01:51.631Z,98891.70
2022-12-28T22:05:22.694Z,98891.36
2022-12-28T22:08:55.659Z,98877.32
2022-12-28T22:12:31.590Z,98877.80
2022-12-28T22:15:56.724Z,98866.53
2022-12-28T22:19:13.539Z,98860.83
2022-12-28T22:22:31.170Z,98855.36
2022-12-28T22:25:50.162Z,98859.64
2022-12-28T22:29:06.335Z,98854.41
2022-12-28T22:32:22.486Z,98861.05
2022-12-28T22:35:39.197Z,98855.83
2022-12-28T22:38:55.342Z,98854.53
2022-12-28T22:42:11.950Z,98859.52
2022-12-28T22:45:31.876Z,98851.20
2022-12-28T22:48:48.170Z,98848.72
2022-12-28T22:52:04.644Z,98847.39
2022-12-28T22:55:21.289Z,98833.99
2022-12-28T22:58:38.022Z,98834.21
2022-12-28T23:01:54.371Z,98838.48
2022-12-28T23:05:11.215Z,98836.82
2022-12-28T23:08:27.503Z,98832.92
2022-12-28T23:11:44.068Z,98828.17
2022-12-28T23:15:14.928Z,98832.44
2022-12-28T23:18:45.509Z,98835.05
2022-12-28T23:22:15.682Z,98840.95
2022-12-28T23:25:47.959Z,98829.95
2022-12-28T23:29:04.045Z,98829.35
2022-12-28T23:32:20.368Z,98825.77
2022-12-28T23:35:36.707Z,98824.47
2022-12-28T23:38:52.902Z,98819.73
2022-12-28T23:42:09.271Z,98829.22
2022-12-28T23:45:26.579Z,98827.06
2022-12-28T23:48:42.916Z,98812.83
2022-12-28T23:52:00.505Z,98812.11
2022-12-28T23:55:18.231Z,98814.63
2022-12-28T23:58:34.435Z,98810.47
